TJIG/SIG METAR and TAF weather

Enter ICAO airport designator
Station Type Date Time Source
TJIG METAR 2020/12/04 22:45 UTC NOAA

TJIG 042245Z 09011KT 10SM SCT030 BKN070 27/21 A3000


Station Type Date Time Source
TJIG Decoded METAR 2020/12/04 22:45 UTC NOAA

Station name not available
Dec 04, 2020 - 05:45 PM EST / 2020.12.04 2245 UTC
Wind: from the E (090 degrees) at 13 MPH (11 KT):0
Visibility: 10 mile(s):0
Sky conditions: mostly cloudy
Temperature: 80 F (27 C)
Dew Point: 69 F (21 C)
Relative Humidity: 69%
Pressure (altimeter): 30 in. Hg (1015 hPa)
ob: TJIG 042245Z 09011KT 10SM SCT030 BKN070 27/21 A3000
cycle: 23

Station Type Date Time Source
TJIG TAF UTC NOAA

Error!

Example: see airport list